createdAt,value
2019-04-14T00:01:54.517Z,27.58
2019-04-14T00:04:29.708Z,26.87
2019-04-14T00:07:01.558Z,26.33
2019-04-14T00:09:33.637Z,25.85
2019-04-14T00:12:07.150Z,26.15
2019-04-14T00:14:38.195Z,26.60
2019-04-14T00:17:08.998Z,27.13
2019-04-14T00:19:41.214Z,26.00
2019-04-14T00:22:11.940Z,25.35
2019-04-14T00:24:42.894Z,27.32
2019-04-14T00:27:14.981Z,25.57
2019-04-14T00:29:45.863Z,25.20
2019-04-14T00:32:16.893Z,25.52
2019-04-14T00:35:06.112Z,25.52
2019-04-14T00:37:44.528Z,25.60
2019-04-14T00:40:17.253Z,26.52
2019-04-14T00:42:52.437Z,25.15
2019-04-14T00:45:33.963Z,24.90
2019-04-14T00:48:05.823Z,24.67
2019-04-14T00:50:31.963Z,23.57
2019-04-14T00:53:03.457Z,25.70
2019-04-14T00:55:35.755Z,25.02
2019-04-14T00:58:06.470Z,24.23
2019-04-14T01:00:38.666Z,24.18
2019-04-14T01:03:09.823Z,25.43
2019-04-14T01:05:41.551Z,24.12
2019-04-14T01:08:12.247Z,24.18
2019-04-14T01:10:43.343Z,25.43
2019-04-14T01:13:15.664Z,22.85
2019-04-14T01:15:54.890Z,24.80
2019-04-14T01:18:19.003Z,24.50
2019-04-14T01:20:49.906Z,23.73
2019-04-14T01:23:21.531Z,24.18
2019-04-14T01:25:52.230Z,23.02
2019-04-14T01:28:24.296Z,24.07
2019-04-14T01:30:55.064Z,22.95
2019-04-14T01:33:27.172Z,22.90
2019-04-14T01:35:58.007Z,22.22
2019-04-14T01:38:29.708Z,21.95
2019-04-14T01:41:00.432Z,22.15
2019-04-14T01:43:32.120Z,21.07
2019-04-14T01:46:13.767Z,20.65
2019-04-14T01:48:35.148Z,21.17
2019-04-14T01:51:24.567Z,21.27
2019-04-14T01:54:00.075Z,23.10
2019-04-14T01:56:42.793Z,20.68
2019-04-14T01:59:15.242Z,21.10
2019-04-14T02:01:48.496Z,20.15
2019-04-14T02:04:20.359Z,21.65
2019-04-14T02:06:52.619Z,20.82
2019-04-14T02:09:25.029Z,21.55
2019-04-14T02:11:57.410Z,20.68
2019-04-14T02:14:28.405Z,21.55
2019-04-14T02:17:01.318Z,21.73
2019-04-14T02:19:32.713Z,21.55
2019-04-14T02:22:03.633Z,21.55
2019-04-14T02:24:35.218Z,22.58
2019-04-14T02:27:07.636Z,21.45
2019-04-14T02:29:38.448Z,22.15
2019-04-14T02:32:42.601Z,22.22
2019-04-14T02:35:16.723Z,22.60
2019-04-14T02:37:34.168Z,23.38
2019-04-14T02:45:32.265Z,24.00
2019-04-14T02:50:28.530Z,23.22
2019-04-14T02:53:01.592Z,23.18
2019-04-14T02:55:21.198Z,22.45
2019-04-14T02:58:04.363Z,22.50
2019-04-14T03:03:10.865Z,22.60
2019-04-14T03:05:47.762Z,22.93
2019-04-14T03:08:17.047Z,25.02
2019-04-14T03:15:56.648Z,25.20
2019-04-14T03:18:44.741Z,25.02
2019-04-14T03:21:13.989Z,24.10
2019-04-14T03:24:05.047Z,23.15
2019-04-14T03:26:33.839Z,23.80
2019-04-14T03:29:29.431Z,24.27
2019-04-14T03:32:11.018Z,25.52
2019-04-14T03:37:32.015Z,24.70
2019-04-14T03:39:42.705Z,23.55
2019-04-14T03:42:08.615Z,24.43
2019-04-14T03:47:21.734Z,24.57
2019-04-14T03:49:45.443Z,24.85
2019-04-14T03:52:29.812Z,24.80
2019-04-14T03:54:44.120Z,26.27
2019-04-14T03:56:59.782Z,27.02
2019-04-14T03:59:30.514Z,26.20
2019-04-14T04:02:01.567Z,27.22
2019-04-14T04:04:33.860Z,26.17
2019-04-14T04:07:06.054Z,26.75
2019-04-14T04:09:38.966Z,25.95
2019-04-14T04:12:10.002Z,27.55
2019-04-14T04:14:41.956Z,26.27
2019-04-14T04:17:17.234Z,27.50
2019-04-14T04:19:53.450Z,25.95
2019-04-14T04:22:43.456Z,26.00
2019-04-14T04:25:16.174Z,26.60
2019-04-14T04:28:04.127Z,27.50
2019-04-14T04:30:40.481Z,27.50
2019-04-14T04:33:22.116Z,28.92
2019-04-14T04:35:54.698Z,28.23
2019-04-14T04:38:39.857Z,28.38
2019-04-14T04:41:10.832Z,26.73
2019-04-14T04:43:42.769Z,29.07
2019-04-14T04:46:13.873Z,28.10
2019-04-14T04:48:57.410Z,26.73
2019-04-14T04:51:18.191Z,27.65
2019-04-14T04:53:50.477Z,26.70
2019-04-14T04:56:21.387Z,27.48
2019-04-14T04:58:52.341Z,26.90
2019-04-14T05:01:23.304Z,25.27
2019-04-14T05:03:54.367Z,25.48
2019-04-14T05:06:57.440Z,26.82
2019-04-14T05:09:36.908Z,26.15
2019-04-14T05:12:13.186Z,26.48
2019-04-14T05:14:50.126Z,25.62
2019-04-14T05:17:23.403Z,25.72
2019-04-14T05:19:54.423Z,25.37
2019-04-14T05:22:26.673Z,23.90
2019-04-14T05:24:57.466Z,24.18
2019-04-14T05:27:28.424Z,25.02
2019-04-14T05:30:00.371Z,25.32
2019-04-14T05:32:32.324Z,23.05
2019-04-14T05:35:03.450Z,22.77
2019-04-14T05:37:35.476Z,22.87
2019-04-14T05:40:08.110Z,23.15
2019-04-14T05:42:38.774Z,24.85
2019-04-14T05:45:11.153Z,23.73
2019-04-14T05:47:41.815Z,25.05
2019-04-14T05:50:13.700Z,22.70
2019-04-14T05:52:44.780Z,24.50
2019-04-14T05:55:15.818Z,23.50
2019-04-14T05:57:48.021Z,25.50
2019-04-14T06:00:19.981Z,24.75
2019-04-14T06:02:52.702Z,25.15
2019-04-14T06:05:23.433Z,25.90
2019-04-14T06:07:55.582Z,23.57
2019-04-14T06:10:26.578Z,24.10
2019-04-14T06:12:57.743Z,25.55
2019-04-14T06:15:28.700Z,24.20
2019-04-14T06:17:59.760Z,24.92
2019-04-14T06:20:30.820Z,24.47
2019-04-14T06:23:01.780Z,25.85
2019-04-14T06:25:32.843Z,25.32
2019-04-14T06:28:03.899Z,24.67
2019-04-14T06:30:52.965Z,23.83
2019-04-14T06:33:42.128Z,23.98
2019-04-14T06:36:14.619Z,23.87
2019-04-14T06:38:47.007Z,23.85
2019-04-14T06:41:19.512Z,25.27
2019-04-14T06:43:50.460Z,25.20
2019-04-14T06:46:21.520Z,24.57
2019-04-14T06:48:52.479Z,25.23
2019-04-14T06:51:23.336Z,26.62
2019-04-14T06:53:54.399Z,23.87
2019-04-14T06:56:25.355Z,24.82
2019-04-14T06:58:56.318Z,23.22
2019-04-14T07:01:27.372Z,24.02
2019-04-14T07:03:58.230Z,23.50
2019-04-14T07:06:29.287Z,24.85
2019-04-14T07:09:00.352Z,23.67
2019-04-14T07:11:31.410Z,24.15
2019-04-14T07:14:02.470Z,25.72
2019-04-14T07:16:33.531Z,25.90
2019-04-14T07:19:04.489Z,28.95
2019-04-14T07:21:35.347Z,25.15
2019-04-14T07:24:06.406Z,26.68
2019-04-14T07:26:37.471Z,27.40
2019-04-14T07:29:08.427Z,27.90
2019-04-14T07:31:41.018Z,27.20
2019-04-14T07:34:31.922Z,27.35
2019-04-14T07:37:24.069Z,26.82
2019-04-14T07:39:56.644Z,26.50
2019-04-14T07:42:31.906Z,25.57
2019-04-14T07:45:16.666Z,28.20
2019-04-14T07:47:49.264Z,27.20
2019-04-14T07:50:38.016Z,26.15
2019-04-14T07:53:28.933Z,28.10
2019-04-14T07:56:01.412Z,26.48
2019-04-14T07:58:40.039Z,26.20
2019-04-14T08:01:12.532Z,26.15
2019-04-14T08:03:50.854Z,26.93
2019-04-14T08:06:21.914Z,28.67
2019-04-14T08:08:52.872Z,27.62
2019-04-14T08:11:24.958Z,26.75
2019-04-14T08:13:56.016Z,27.13
2019-04-14T08:16:27.078Z,26.23
2019-04-14T08:18:57.934Z,26.60
2019-04-14T08:21:28.994Z,28.20
2019-04-14T08:23:59.952Z,28.25
2019-04-14T08:26:31.011Z,29.23
2019-04-14T08:29:01.975Z,28.83
2019-04-14T08:31:32.826Z,28.73
2019-04-14T08:34:03.886Z,30.55
2019-04-14T08:36:34.845Z,31.42
2019-04-14T08:39:06.842Z,29.55
2019-04-14T08:41:39.628Z,29.40
2019-04-14T08:44:12.122Z,29.48
2019-04-14T08:46:47.883Z,29.25
2019-04-14T08:49:23.552Z,30.40
2019-04-14T08:51:56.245Z,31.37
2019-04-14T08:54:28.740Z,30.02
2019-04-14T08:57:01.231Z,32.05
2019-04-14T08:59:49.981Z,31.95
2019-04-14T09:02:28.822Z,30.12
2019-04-14T09:05:04.275Z,29.12
2019-04-14T09:07:39.737Z,27.75
2019-04-14T09:10:12.330Z,28.30
2019-04-14T09:12:48.607Z,28.95
2019-04-14T09:15:19.564Z,29.35
2019-04-14T09:17:50.521Z,29.67
2019-04-14T09:20:21.583Z,30.68
2019-04-14T09:22:52.543Z,30.52
2019-04-14T09:25:23.398Z,29.20
2019-04-14T09:27:54.457Z,28.55
2019-04-14T09:30:25.417Z,28.60
2019-04-14T09:32:56.490Z,27.95
2019-04-14T09:35:27.443Z,29.52
2019-04-14T09:37:58.399Z,29.05
2019-04-14T09:40:29.454Z,28.73
2019-04-14T09:43:00.415Z,31.55
2019-04-14T09:45:31.269Z,29.32
2019-04-14T09:48:02.332Z,30.27
2019-04-14T09:50:33.286Z,27.48
2019-04-14T09:53:04.554Z,32.40
2019-04-14T09:55:35.514Z,30.17
2019-04-14T09:58:06.368Z,31.82
2019-04-14T10:00:38.962Z,31.52
2019-04-14T10:03:10.251Z,30.50
2019-04-14T10:05:41.175Z,32.40
2019-04-14T10:08:11.839Z,33.08
2019-04-14T10:10:42.695Z,30.45
2019-04-14T10:13:14.879Z,33.15
2019-04-14T10:15:45.943Z,31.93
2019-04-14T10:18:16.999Z,30.95
2019-04-14T10:20:48.061Z,32.15
2019-04-14T10:23:19.021Z,31.40
2019-04-14T10:25:50.080Z,34.53
2019-04-14T10:28:21.042Z,31.45
2019-04-14T10:30:51.894Z,30.77
2019-04-14T10:33:22.957Z,31.55
2019-04-14T10:35:53.916Z,29.10
2019-04-14T10:38:24.973Z,29.45
2019-04-14T10:40:55.933Z,32.13
2019-04-14T10:43:26.788Z,29.75
2019-04-14T10:45:57.850Z,29.00
2019-04-14T10:48:28.809Z,30.57
2019-04-14T10:50:59.867Z,31.62
2019-04-14T10:53:30.825Z,31.57
2019-04-14T10:56:01.854Z,31.80
2019-04-14T10:58:33.049Z,32.15
2019-04-14T11:01:04.111Z,29.95
2019-04-14T11:03:34.970Z,31.87
2019-04-14T11:06:13.594Z,30.82
2019-04-14T11:08:44.482Z,30.48
2019-04-14T11:11:15.517Z,29.20
2019-04-14T11:13:47.394Z,29.80
2019-04-14T11:16:18.353Z,32.55
2019-04-14T11:18:49.307Z,32.03
2019-04-14T11:21:20.369Z,30.82
2019-04-14T11:23:51.324Z,30.30
2019-04-14T11:26:22.391Z,31.05
2019-04-14T11:28:53.347Z,30.85
2019-04-14T11:31:25.943Z,29.40
2019-04-14T11:34:00.483Z,29.07
2019-04-14T11:36:48.107Z,32.83
2019-04-14T11:39:20.601Z,32.13
2019-04-14T11:41:51.560Z,32.13
2019-04-14T11:44:22.651Z,31.05
2019-04-14T11:46:53.591Z,33.25
2019-04-14T11:49:24.435Z,33.42
2019-04-14T11:51:55.926Z,33.10
2019-04-14T11:54:26.865Z,34.43
2019-04-14T11:56:57.922Z,34.03
2019-04-14T11:59:39.322Z,31.20
2019-04-14T12:02:11.603Z,33.80
2019-04-14T12:04:44.309Z,35.25
2019-04-14T12:07:26.098Z,34.40
2019-04-14T12:09:58.795Z,33.83
2019-04-14T12:12:29.754Z,31.10
2019-04-14T12:15:01.632Z,31.77
2019-04-14T12:17:32.650Z,29.80
2019-04-14T12:20:05.199Z,30.82
2019-04-14T12:22:35.838Z,32.70
2019-04-14T12:25:07.306Z,31.75
2019-04-14T12:27:38.266Z,30.80
2019-04-14T12:30:11.550Z,30.82
2019-04-14T12:32:42.330Z,30.55
2019-04-14T12:35:13.479Z,31.00
2019-04-14T12:37:44.352Z,28.50
2019-04-14T12:40:16.329Z,29.20
2019-04-14T12:43:04.674Z,30.27
2019-04-14T12:45:37.268Z,29.82
2019-04-14T12:48:09.864Z,30.57
2019-04-14T12:50:48.289Z,30.92
2019-04-14T12:53:19.349Z,31.33
2019-04-14T12:55:51.027Z,32.40
2019-04-14T12:58:23.619Z,32.38
2019-04-14T13:01:05.520Z,31.75
2019-04-14T13:03:36.788Z,33.35
2019-04-14T13:06:07.846Z,31.07
2019-04-14T13:08:38.907Z,30.35
2019-04-14T13:11:09.970Z,29.00
2019-04-14T13:13:40.927Z,28.98
2019-04-14T13:16:13.011Z,28.62
2019-04-14T13:18:44.073Z,38.20
2019-04-14T13:21:15.130Z,27.50
2019-04-14T13:23:46.195Z,30.20
2019-04-14T13:26:17.150Z,28.45
2019-04-14T13:28:48.013Z,26.12
2019-04-14T13:31:19.066Z,25.95
2019-04-14T13:33:50.029Z,27.93
2019-04-14T13:36:21.088Z,26.65
2019-04-14T13:38:52.043Z,29.25
2019-04-14T13:41:22.898Z,27.77
2019-04-14T13:43:53.958Z,26.82
2019-04-14T13:46:24.916Z,26.30
2019-04-14T13:48:55.774Z,25.05
2019-04-14T13:51:26.737Z,27.67
2019-04-14T13:53:57.282Z,26.40
2019-04-14T13:56:28.855Z,24.72
2019-04-14T13:58:59.504Z,24.87
2019-04-14T14:01:30.467Z,27.00
2019-04-14T14:04:01.526Z,25.62
2019-04-14T14:06:32.380Z,24.67
2019-04-14T14:09:04.974Z,25.90
2019-04-14T14:11:37.468Z,28.12
2019-04-14T14:14:12.926Z,23.85
2019-04-14T14:16:46.544Z,23.60
2019-04-14T14:19:24.971Z,29.72
2019-04-14T14:21:57.767Z,23.15
2019-04-14T14:24:33.435Z,22.50
2019-04-14T14:27:05.421Z,26.65
2019-04-14T14:29:36.477Z,24.02
2019-04-14T14:32:08.964Z,23.42
2019-04-14T14:34:40.024Z,24.30
2019-04-14T14:37:12.314Z,23.80
2019-04-14T14:39:43.173Z,24.47
2019-04-14T14:42:14.228Z,22.62
2019-04-14T14:44:46.824Z,21.97
2019-04-14T14:47:19.418Z,21.15
2019-04-14T14:50:10.119Z,24.23
2019-04-14T14:55:11.830Z,24.30
2019-04-14T14:57:42.892Z,23.87
2019-04-14T15:00:31.137Z,22.27
2019-04-14T15:03:02.195Z,23.15
2019-04-14T15:05:32.947Z,24.30
2019-04-14T15:08:03.906Z,24.98
2019-04-14T15:10:34.760Z,24.70
2019-04-14T15:13:05.928Z,22.87
2019-04-14T15:15:37.395Z,22.17
2019-04-14T15:18:09.274Z,22.32
2019-04-14T15:20:40.232Z,23.73
2019-04-14T15:23:24.041Z,22.85
2019-04-14T15:25:43.788Z,22.05
2019-04-14T15:28:15.774Z,24.85
2019-04-14T15:30:46.623Z,23.45
2019-04-14T15:33:17.582Z,24.47
2019-04-14T15:35:48.643Z,22.37
2019-04-14T15:38:19.294Z,25.00
2019-04-14T15:40:50.252Z,24.23
2019-04-14T15:43:21.313Z,24.87
2019-04-14T15:45:52.273Z,24.67
2019-04-14T15:48:23.131Z,25.77
2019-04-14T15:50:54.187Z,25.15
2019-04-14T15:53:37.194Z,24.30
2019-04-14T15:55:57.742Z,25.60
2019-04-14T15:58:32.791Z,25.12
2019-04-14T16:01:05.288Z,25.65
2019-04-14T16:03:50.012Z,24.45
2019-04-14T16:06:22.641Z,25.95
2019-04-14T16:09:01.373Z,26.42
2019-04-14T16:11:33.765Z,26.10
2019-04-14T16:14:09.630Z,26.50
2019-04-14T16:16:57.571Z,27.55
2019-04-14T16:19:31.186Z,28.05
2019-04-14T16:22:02.247Z,30.52
2019-04-14T16:24:36.172Z,29.55
2019-04-14T16:27:24.923Z,31.97
2019-04-14T16:30:15.727Z,32.65
2019-04-14T16:32:48.115Z,32.42
2019-04-14T16:35:20.715Z,37.05
2019-04-14T16:37:51.668Z,33.45
2019-04-14T16:40:22.522Z,35.33
2019-04-14T16:42:53.585Z,36.15
2019-04-14T16:45:24.477Z,34.03
2019-04-14T16:47:55.504Z,34.20
2019-04-14T16:50:26.561Z,34.43
2019-04-14T16:53:17.258Z,34.53
2019-04-14T17:01:02.516Z,35.10
2019-04-14T17:03:33.573Z,37.98
2019-04-14T17:06:07.188Z,36.60
2019-04-14T17:08:40.601Z,36.63
2019-04-14T17:11:11.562Z,39.55
2019-04-14T17:13:43.951Z,35.15
2019-04-14T17:16:19.101Z,35.48
2019-04-14T17:18:54.764Z,34.83
2019-04-14T17:21:34.214Z,36.68
2019-04-14T17:24:31.864Z,36.95
2019-04-14T17:27:07.852Z,32.50
2019-04-14T17:29:43.392Z,31.62
2019-04-14T17:32:23.149Z,26.68
2019-04-14T17:35:12.004Z,25.95
2019-04-14T17:37:44.512Z,24.70
2019-04-14T17:40:20.224Z,24.00
2019-04-14T17:42:55.513Z,23.35
2019-04-14T17:45:30.770Z,23.47
2019-04-14T17:48:06.128Z,23.22
2019-04-14T17:50:44.243Z,23.30
2019-04-14T17:53:22.669Z,22.70
2019-04-14T17:55:55.057Z,23.27
2019-04-14T17:58:43.912Z,23.73
2019-04-14T18:01:17.943Z,24.72
2019-04-14T18:04:05.673Z,24.92
2019-04-14T18:06:38.266Z,24.20
2019-04-14T18:09:19.759Z,23.32
2019-04-14T18:11:52.251Z,23.67
2019-04-14T18:14:39.369Z,23.85
2019-04-14T18:17:11.867Z,23.05
2019-04-14T18:20:00.822Z,24.77
2019-04-14T18:22:32.904Z,27.55
2019-04-14T18:25:04.795Z,26.27
2019-04-14T18:27:49.854Z,25.48
2019-04-14T18:30:22.245Z,28.20
2019-04-14T18:33:01.080Z,27.82
2019-04-14T18:35:39.711Z,28.07
2019-04-14T18:38:15.063Z,26.73
2019-04-14T18:40:47.657Z,26.02
2019-04-14T18:43:36.514Z,27.40
2019-04-14T18:46:09.522Z,29.60
2019-04-14T18:49:00.624Z,27.42
2019-04-14T18:51:45.188Z,27.67
2019-04-14T18:54:17.579Z,28.60
2019-04-14T18:56:50.994Z,27.62
2019-04-14T18:59:29.004Z,28.27
2019-04-14T19:02:01.295Z,26.45
2019-04-14T19:04:32.149Z,28.27
2019-04-14T19:07:03.108Z,26.35
2019-04-14T19:09:33.965Z,28.65
2019-04-14T19:12:21.594Z,29.05
2019-04-14T19:14:54.398Z,29.30
2019-04-14T19:17:36.198Z,28.42
2019-04-14T19:20:07.846Z,28.90
2019-04-14T19:22:38.412Z,28.95
2019-04-14T19:25:09.578Z,25.80
2019-04-14T19:27:40.435Z,24.05
2019-04-14T19:30:11.905Z,24.72
2019-04-14T19:32:42.556Z,26.02
2019-04-14T19:35:13.514Z,27.15
2019-04-14T19:37:44.472Z,27.82
2019-04-14T19:40:15.532Z,29.67
2019-04-14T19:42:46.490Z,30.00
2019-04-14T19:45:17.449Z,30.48
2019-04-14T19:47:49.941Z,31.55
2019-04-14T19:50:21.003Z,31.12
2019-04-14T19:52:51.964Z,29.35
2019-04-14T19:55:23.124Z,28.23
2019-04-14T19:57:54.082Z,29.95
2019-04-14T20:00:25.209Z,28.87
2019-04-14T20:02:56.201Z,30.65
2019-04-14T20:05:29.718Z,29.75
2019-04-14T20:08:00.996Z,29.50
2019-04-14T20:10:35.132Z,29.40
2019-04-14T20:13:06.072Z,32.53
2019-04-14T20:15:38.370Z,31.12
2019-04-14T20:18:10.957Z,32.42
2019-04-14T20:20:46.417Z,31.93
2019-04-14T20:23:23.119Z,34.35
2019-04-14T20:25:55.693Z,30.25
2019-04-14T20:28:44.652Z,31.17
2019-04-14T20:31:20.008Z,30.37
2019-04-14T20:33:51.069Z,29.67
2019-04-14T20:36:22.026Z,29.75
2019-04-14T20:38:53.089Z,30.32
2019-04-14T20:41:24.049Z,30.27
2019-04-14T20:43:55.057Z,30.75
2019-04-14T20:46:25.767Z,31.20
2019-04-14T20:48:56.716Z,30.27
2019-04-14T20:51:27.887Z,27.48
2019-04-14T20:53:58.847Z,26.50
2019-04-14T20:56:29.489Z,25.15
2019-04-14T20:59:00.316Z,25.72
2019-04-14T21:01:32.940Z,24.75
2019-04-14T21:04:20.773Z,23.25
2019-04-14T21:06:53.368Z,24.40
2019-04-14T21:09:29.135Z,26.93
2019-04-14T21:12:01.728Z,23.73
2019-04-14T21:14:46.616Z,21.77
2019-04-14T21:17:22.363Z,22.85
2019-04-14T21:19:54.957Z,19.57
2019-04-14T21:22:45.962Z,19.30
2019-04-14T21:25:24.492Z,20.43
2019-04-14T21:28:05.779Z,20.05
2019-04-14T21:30:41.240Z,21.80
2019-04-14T21:33:29.272Z,19.55
2019-04-14T21:36:19.969Z,20.90
2019-04-14T21:39:08.828Z,19.67
2019-04-14T21:41:41.015Z,19.35
2019-04-14T21:44:11.663Z,20.30
2019-04-14T21:46:42.624Z,19.67
2019-04-14T21:49:16.140Z,18.75
2019-04-14T21:51:51.595Z,18.02
2019-04-14T21:54:22.658Z,17.40
2019-04-14T21:56:55.148Z,18.73
2019-04-14T21:59:43.904Z,20.17
2019-04-14T22:02:32.861Z,17.95
2019-04-14T22:05:11.592Z,18.77
2019-04-14T22:08:00.452Z,17.00
2019-04-14T22:10:35.909Z,19.00
2019-04-14T22:13:06.967Z,19.25
2019-04-14T22:15:37.925Z,19.02
2019-04-14T22:18:08.884Z,21.20
2019-04-14T22:20:39.947Z,20.55
2019-04-14T22:23:12.542Z,18.37
2019-04-14T22:25:43.293Z,17.45
2019-04-14T22:28:14.353Z,20.90
2019-04-14T22:30:45.418Z,22.20
2019-04-14T22:33:16.479Z,21.68
2019-04-14T22:35:47.435Z,21.42
2019-04-14T22:38:18.401Z,22.52
2019-04-14T22:40:49.350Z,21.75
2019-04-14T22:43:20.414Z,20.77
2019-04-14T22:45:51.475Z,18.40
2019-04-14T22:48:22.532Z,18.82
2019-04-14T22:50:53.391Z,19.98
2019-04-14T22:53:24.451Z,20.10
2019-04-14T22:55:55.512Z,18.23
2019-04-14T22:58:26.621Z,20.12
2019-04-14T23:01:01.982Z,18.45
2019-04-14T23:03:39.231Z,17.77
2019-04-14T23:06:23.993Z,18.00
2019-04-14T23:09:12.951Z,17.50
2019-04-14T23:11:45.444Z,18.90
2019-04-14T23:14:23.771Z,17.90
2019-04-14T23:17:12.826Z,19.42
2019-04-14T23:19:51.461Z,18.65
2019-04-14T23:22:23.848Z,20.48
2019-04-14T23:24:55.829Z,18.95
2019-04-14T23:27:26.891Z,17.87
2019-04-14T23:29:57.952Z,18.80
2019-04-14T23:32:29.012Z,19.02
2019-04-14T23:35:00.072Z,17.37
2019-04-14T23:37:31.136Z,17.55
2019-04-14T23:40:02.188Z,17.98
2019-04-14T23:42:33.253Z,19.87
2019-04-14T23:45:06.147Z,21.20
2019-04-14T23:47:36.807Z,19.70
2019-04-14T23:50:08.519Z,17.62
2019-04-14T23:52:39.644Z,15.78
2019-04-14T23:55:10.603Z,17.85
2019-04-14T23:57:41.151Z,15.68
